Flight Track Log - Related Links

Times and Time Zones

All times are in EDT time to prevent confusion due to time zone crossing. See the ASQ4406 flight status page for this flight to view local times or setup timezone preferences in your user account.

Time Position Orientation Groundspeed Altitude Reporting Facility
EDT Latitude Longitude Course Direction KTS MPH feet Rate Location/Type
08:27PM 27.7803 -97.4661 44° Northeast 199 229 2,600  Level Houston Center
08:28PM 27.8386 -97.4492 14° North 261 300 5,000 2,622 Climbing Houston Center
08:29PM 27.9114 -97.4281 14° North 268 308 7,800 2,537 Climbing Houston Center
08:30PM 27.9733 -97.3831 33° Northeast 282 325 10,200 1,561 Climbing Houston Center
08:31PM 28.0433 -97.3186 39° Northeast 314 361 11,000 1,210 Climbing Houston Center
08:32PM 28.1236 -97.2433 40° Northeast 361 415 12,700 1,610 Climbing Houston Center
08:33PM 28.2192 -97.1603 37° Northeast 363 418 14,300 1,366 Climbing Houston Center
08:34PM 28.3072 -97.0936 34° Northeast 374 430 15,500 1,113 Climbing Houston Center
08:35PM 28.3983 -97.0267 33° Northeast 386 444 16,600 683 Climbing Houston Center
08:36PM 28.4919 -96.9572 33° Northeast 397 457 16,900 146 Climbing Houston Center
08:37PM 28.5881 -96.8867 33° Northeast 409 471 16,900  Level Houston Center
08:38PM 28.6850 -96.8147 33° Northeast 414 476 16,900  Level Houston Center
08:39PM 28.7803 -96.7425 34° Northeast 414 476 16,900  Level Houston Center
08:40PM 28.8950 -96.6586 33° Northeast 410 472 16,900  Level Houston Center
08:41PM 28.9886 -96.5881 33° Northeast 407 468 16,900  Level Houston Center
08:42PM 29.0831 -96.5158 34° Northeast 410 472 16,900 -98 Level Houston Center
08:43PM 29.1775 -96.4447 33° Northeast 410 472 16,700 -629 Descending Houston Center
08:44PM 29.2697 -96.3756 33° Northeast 403 464 15,600 -1,561 Descending Houston Center
08:45PM 29.3747 -96.2972 33° Northeast 381 438 13,500 -2,098 Descending Houston Center
08:46PM 29.4592 -96.2319 34° Northeast 369 425 11,300 -1,662 Descending Houston Center
08:47PM 29.5469 -96.1592 36° Northeast 346 398 9,900 -634 Descending Houston Center
08:48PM 29.5886 -96.0803 59° Northeast 330 380 10,000 -51 Climbing Houston Center
08:49PM 29.6325 -95.9956 59° Northeast 327 376 9,800 -629 Descending Houston Center
08:50PM 29.6783 -95.9269 52° Northeast 294 338 8,700 -1,268 Descending Houston Center
08:51PM 29.7647 -95.8886 21° North 276 318 7,200 -780 Descending Houston Center
08:52PM 29.8281 -95.8394 34° Northeast 277 319 7,100 -142 Descending Houston Center
08:53PM 29.8917 -95.7786 40° Northeast 271 312 6,900 -762 Descending Houston Center
08:54PM 29.9453 -95.7192 44° Northeast 265 305 5,500 -1,261 Descending Houston Center
08:55PM 29.9750 -95.6547 62° Northeast 255 293 4,400 -850 Descending Houston Center
08:56PM 29.9939 -95.5753 75° East 263 303 3,800 -878 Descending Houston Center
08:57PM 29.9931 -95.5006 91° East 242 278 2,600 -1,024 Descending Houston Center
08:59PM 29.9939 -95.4394 89° East 217 250 1,700 -871 Descending Houston Center

Login

Don't have an account? Register now (free) for customized features, flight alerts, and more!